createdAt,value
2018-12-03T00:00:24.384Z,86.00
2018-12-03T00:03:08.419Z,85.90
2018-12-03T00:05:36.803Z,85.90
2018-12-03T00:08:05.389Z,86.00
2018-12-03T00:10:33.816Z,86.10
2018-12-03T00:13:02.148Z,86.30
2018-12-03T00:15:30.651Z,86.40
2018-12-03T00:17:59.016Z,86.40
2018-12-03T00:20:27.336Z,86.40
2018-12-03T00:22:55.715Z,86.40
2018-12-03T00:25:24.037Z,86.20
2018-12-03T00:27:53.037Z,85.90
2018-12-03T00:30:21.469Z,85.70
2018-12-03T00:32:50.268Z,85.70
2018-12-03T00:35:18.696Z,85.70
2018-12-03T00:37:47.040Z,85.60
2018-12-03T00:40:15.437Z,85.50
2018-12-03T00:42:43.770Z,85.60
2018-12-03T00:45:12.121Z,85.60
2018-12-03T00:47:40.524Z,85.60
2018-12-03T00:50:08.923Z,85.50
2018-12-03T00:52:37.237Z,85.40
2018-12-03T00:55:06.904Z,85.60
2018-12-03T00:57:35.224Z,85.70
2018-12-03T01:00:05.122Z,85.90
2018-12-03T01:02:33.529Z,86.10
2018-12-03T01:05:01.874Z,86.20
2018-12-03T01:07:30.268Z,86.30
2018-12-03T01:09:58.599Z,86.30
2018-12-03T01:12:26.940Z,86.40
2018-12-03T01:14:55.284Z,86.50
2018-12-03T01:17:23.616Z,86.60
2018-12-03T01:19:51.927Z,86.60
2018-12-03T01:22:20.303Z,86.40
2018-12-03T01:24:48.627Z,86.10
2018-12-03T01:27:17.001Z,85.50
2018-12-03T01:29:45.360Z,85.00
2018-12-03T01:32:13.665Z,84.50
2018-12-03T01:34:42.000Z,84.20
2018-12-03T01:37:10.354Z,84.00
2018-12-03T01:39:38.648Z,83.80
2018-12-03T01:42:07.000Z,83.70
2018-12-03T01:44:35.360Z,83.70
2018-12-03T01:47:03.684Z,83.70
2018-12-03T01:49:32.045Z,83.90
2018-12-03T01:52:00.756Z,84.20
2018-12-03T01:54:29.067Z,84.30
2018-12-03T01:56:57.377Z,84.70
2018-12-03T01:59:25.751Z,85.20
2018-12-03T02:01:54.116Z,85.50
2018-12-03T02:04:22.436Z,85.90
2018-12-03T02:06:50.875Z,86.10
2018-12-03T02:09:19.208Z,86.50
2018-12-03T02:11:47.652Z,86.70
2018-12-03T02:14:15.971Z,86.80
2018-12-03T02:16:44.340Z,86.90
2018-12-03T02:19:12.695Z,86.90
2018-12-03T02:21:41.035Z,86.60
2018-12-03T02:24:09.476Z,86.20
2018-12-03T02:26:37.774Z,85.80
2018-12-03T02:29:06.123Z,85.30
2018-12-03T02:31:34.476Z,84.90
2018-12-03T02:34:02.864Z,84.60
2018-12-03T02:36:31.217Z,84.40
2018-12-03T02:38:59.571Z,84.30
2018-12-03T02:41:27.891Z,84.20
2018-12-03T02:43:56.223Z,84.10
2018-12-03T02:46:24.569Z,84.10
2018-12-03T02:48:52.864Z,84.00
2018-12-03T02:51:21.197Z,84.00
2018-12-03T02:53:49.512Z,84.00
2018-12-03T02:56:17.907Z,83.90
2018-12-03T02:58:46.222Z,83.90
2018-12-03T03:01:14.592Z,84.00
2018-12-03T03:03:42.926Z,84.10
2018-12-03T03:06:11.260Z,84.30
2018-12-03T03:08:39.552Z,84.50
2018-12-03T03:11:07.881Z,84.70
2018-12-03T03:13:36.272Z,84.90
2018-12-03T03:16:04.749Z,85.10
2018-12-03T03:18:33.064Z,85.30
2018-12-03T03:21:01.411Z,85.50
2018-12-03T03:23:32.460Z,85.80
2018-12-03T03:26:00.795Z,86.30
2018-12-03T03:28:29.147Z,86.60
2018-12-03T03:30:57.483Z,86.90
2018-12-03T03:33:25.786Z,87.10
2018-12-03T03:35:54.103Z,87.20
2018-12-03T03:38:22.432Z,87.10
2018-12-03T03:40:50.813Z,87.00
2018-12-03T03:43:19.123Z,86.90
2018-12-03T03:45:47.500Z,86.80
2018-12-03T03:48:15.852Z,86.90
2018-12-03T03:50:44.189Z,87.00
2018-12-03T03:53:12.579Z,87.10
2018-12-03T03:55:40.880Z,87.20
2018-12-03T03:58:09.276Z,87.40
2018-12-03T04:00:37.624Z,87.60
2018-12-03T04:03:06.005Z,87.70
2018-12-03T04:05:34.373Z,87.80
2018-12-03T04:08:02.700Z,87.90
2018-12-03T04:10:31.009Z,88.10
2018-12-03T04:12:59.353Z,88.20
2018-12-03T04:15:27.677Z,88.40
2018-12-03T04:17:57.533Z,88.80
2018-12-03T04:20:25.842Z,89.20
2018-12-03T04:22:54.924Z,89.60
2018-12-03T04:25:23.301Z,89.90
2018-12-03T04:27:52.648Z,90.10
2018-12-03T04:30:21.748Z,90.30
2018-12-03T04:32:50.803Z,90.30
2018-12-03T04:35:19.126Z,90.40
2018-12-03T04:37:47.469Z,90.40
2018-12-03T04:40:16.506Z,90.30
2018-12-03T04:42:44.860Z,90.30
2018-12-03T04:45:14.387Z,90.20
2018-12-03T04:47:42.775Z,90.20
2018-12-03T04:50:13.143Z,90.20
2018-12-03T04:52:41.506Z,90.20
2018-12-03T04:55:10.315Z,90.20
2018-12-03T04:57:38.770Z,90.20
2018-12-03T05:00:11.694Z,90.20
2018-12-03T05:02:40.089Z,90.30
2018-12-03T05:05:08.973Z,90.30
2018-12-03T05:07:37.284Z,90.20
2018-12-03T05:10:11.028Z,90.10
2018-12-03T05:12:39.392Z,90.00
2018-12-03T05:15:11.724Z,90.00
2018-12-03T05:17:40.350Z,89.80
2018-12-03T05:20:11.752Z,89.70
2018-12-03T05:22:40.084Z,89.60
2018-12-03T05:25:09.543Z,89.50
2018-12-03T05:27:37.918Z,89.40
2018-12-03T05:30:09.536Z,89.30
2018-12-03T05:32:38.267Z,89.20
2018-12-03T05:35:10.948Z,89.10
2018-12-03T05:37:39.362Z,89.10
2018-12-03T05:40:15.890Z,89.10
2018-12-03T05:42:44.392Z,89.10
2018-12-03T05:45:12.748Z,89.10
2018-12-03T05:47:41.066Z,89.10
2018-12-03T05:50:11.616Z,89.10
2018-12-03T05:52:39.967Z,89.10
2018-12-03T05:55:09.600Z,89.20
2018-12-03T05:57:37.951Z,89.30
2018-12-03T06:00:16.464Z,89.30
2018-12-03T06:02:44.868Z,89.30
2018-12-03T06:05:13.745Z,89.20
2018-12-03T06:07:42.132Z,89.30
2018-12-03T06:10:13.516Z,89.30
2018-12-03T06:12:41.977Z,89.30
2018-12-03T06:15:11.495Z,89.40
2018-12-03T06:17:39.981Z,89.50
2018-12-03T06:20:11.700Z,89.70
2018-12-03T06:22:40.041Z,89.60
2018-12-03T06:25:10.745Z,89.50
2018-12-03T06:27:39.129Z,89.50
2018-12-03T06:30:19.407Z,89.40
2018-12-03T06:32:47.772Z,89.30
2018-12-03T06:35:16.796Z,89.40
2018-12-03T06:37:45.254Z,89.50
2018-12-03T06:40:20.415Z,89.70
2018-12-03T06:42:48.782Z,89.80
2018-12-03T06:45:18.318Z,90.00
2018-12-03T06:47:51.281Z,90.10
2018-12-03T06:50:20.429Z,90.10
2018-12-03T06:52:48.816Z,90.10
2018-12-03T06:55:17.153Z,90.10
2018-12-03T06:57:45.527Z,90.00
2018-12-03T07:00:15.088Z,90.00
2018-12-03T07:02:43.754Z,90.00
2018-12-03T07:05:12.220Z,90.10
2018-12-03T07:07:41.226Z,90.10
2018-12-03T07:10:12.932Z,90.10
2018-12-03T07:12:41.518Z,90.20
2018-12-03T07:15:11.344Z,90.20
2018-12-03T07:17:39.734Z,90.30
2018-12-03T07:20:11.260Z,90.40
2018-12-03T07:22:39.827Z,90.40
2018-12-03T07:25:09.357Z,90.50
2018-12-03T07:27:37.793Z,90.60
2018-12-03T07:30:15.403Z,90.60
2018-12-03T07:32:44.340Z,90.60
2018-12-03T07:35:12.779Z,90.50
2018-12-03T07:37:41.203Z,90.40
2018-12-03T07:40:10.681Z,90.40
2018-12-03T07:42:39.399Z,90.30
2018-12-03T07:45:13.651Z,90.30
2018-12-03T07:47:42.031Z,90.30
2018-12-03T07:50:11.533Z,90.30
2018-12-03T07:52:40.081Z,90.40
2018-12-03T07:55:11.307Z,90.50
2018-12-03T07:57:41.000Z,90.50
2018-12-03T08:00:13.076Z,90.60
2018-12-03T08:02:41.494Z,90.50
2018-12-03T08:05:10.548Z,90.50
2018-12-03T08:07:38.986Z,90.50
2018-12-03T08:10:11.232Z,90.50
2018-12-03T08:12:39.734Z,90.40
2018-12-03T08:15:24.580Z,90.40
2018-12-03T08:17:56.602Z,90.40
2018-12-03T08:20:27.115Z,90.40
2018-12-03T08:23:02.383Z,90.30
2018-12-03T08:25:30.964Z,90.20
2018-12-03T08:27:59.472Z,90.10
2018-12-03T08:30:27.805Z,90.00
2018-12-03T08:32:56.407Z,89.90
2018-12-03T08:35:24.876Z,89.80
2018-12-03T08:37:53.282Z,89.60
2018-12-03T08:40:21.623Z,89.60
2018-12-03T08:42:56.548Z,89.50
2018-12-03T08:45:25.512Z,89.60
2018-12-03T08:47:54.080Z,89.60
2018-12-03T08:50:25.396Z,89.60
2018-12-03T08:52:54.280Z,89.70
2018-12-03T08:55:29.059Z,89.80
2018-12-03T08:57:57.399Z,89.80
2018-12-03T09:00:27.921Z,89.80
2018-12-03T09:03:01.722Z,89.70
2018-12-03T09:05:34.380Z,89.70
2018-12-03T09:08:02.764Z,89.50
2018-12-03T09:10:31.123Z,89.20
2018-12-03T09:13:06.331Z,89.10
2018-12-03T09:15:34.684Z,89.00
2018-12-03T09:18:03.101Z,88.90
2018-12-03T09:20:31.768Z,88.80
2018-12-03T09:23:00.093Z,88.70
2018-12-03T09:25:28.463Z,88.70
2018-12-03T09:27:56.833Z,88.50
2018-12-03T09:30:27.720Z,88.40
2018-12-03T09:32:53.583Z,88.20
2018-12-03T09:35:21.945Z,88.10
2018-12-03T09:37:50.272Z,88.00
2018-12-03T09:40:20.248Z,87.80
2018-12-03T09:42:48.584Z,87.70
2018-12-03T09:45:17.851Z,87.50
2018-12-03T09:47:46.571Z,87.50
2018-12-03T09:50:16.864Z,87.40
2018-12-03T09:52:45.361Z,87.40
2018-12-03T09:55:18.999Z,87.50
2018-12-03T09:58:05.626Z,87.50
2018-12-03T10:00:34.012Z,87.50
2018-12-03T10:03:04.388Z,87.40
2018-12-03T10:05:39.428Z,87.30
2018-12-03T10:08:07.740Z,87.20
2018-12-03T10:10:36.058Z,87.20
2018-12-03T10:13:07.447Z,87.10
2018-12-03T10:15:35.803Z,87.10
2018-12-03T10:18:04.473Z,87.10
2018-12-03T10:20:32.817Z,87.10
2018-12-03T10:23:01.220Z,87.10
2018-12-03T10:25:29.640Z,87.10
2018-12-03T10:28:03.045Z,87.10
2018-12-03T10:30:31.456Z,87.10
2018-12-03T10:32:59.800Z,87.10
2018-12-03T10:35:34.683Z,87.10
2018-12-03T10:38:08.930Z,87.10
2018-12-03T10:40:41.914Z,87.10
2018-12-03T10:43:11.189Z,87.20
2018-12-03T10:45:39.900Z,87.10
2018-12-03T10:48:08.344Z,87.00
2018-12-03T10:50:36.752Z,86.80
2018-12-03T10:53:05.476Z,86.50
2018-12-03T10:55:38.636Z,86.40
2018-12-03T10:58:07.043Z,86.20
2018-12-03T11:00:40.888Z,86.10
2018-12-03T11:03:13.928Z,86.10
2018-12-03T11:05:48.164Z,86.10
2018-12-03T11:08:22.421Z,86.20
2018-12-03T11:10:52.461Z,86.30
2018-12-03T11:13:21.004Z,86.40
2018-12-03T11:15:49.418Z,86.50
2018-12-03T11:18:18.356Z,86.80
2018-12-03T11:20:46.684Z,87.20
2018-12-03T11:23:21.837Z,87.40
2018-12-03T11:25:50.526Z,87.60
2018-12-03T11:28:19.379Z,87.70
2018-12-03T11:30:51.612Z,87.80
2018-12-03T11:33:25.980Z,87.70
2018-12-03T11:35:56.032Z,87.50
2018-12-03T11:40:34.801Z,87.40
2018-12-03T11:43:03.189Z,87.30
2018-12-03T11:45:31.565Z,87.00
2018-12-03T11:47:59.948Z,86.80
2018-12-03T11:50:28.394Z,86.00
2018-12-03T11:52:56.745Z,85.40
2018-12-03T11:55:25.072Z,85.00
2018-12-03T11:57:53.383Z,84.80
2018-12-03T12:00:21.801Z,84.60
2018-12-03T12:02:50.246Z,84.30
2018-12-03T12:05:24.740Z,84.20
2018-12-03T12:07:53.301Z,84.30
2018-12-03T12:10:21.713Z,84.20
2018-12-03T12:12:50.285Z,84.00
2018-12-03T12:15:18.694Z,84.20
2018-12-03T12:17:47.544Z,84.30
2018-12-03T12:20:16.120Z,84.50
2018-12-03T12:22:44.657Z,84.70
2018-12-03T12:25:13.422Z,84.90
2018-12-03T12:27:44.034Z,85.10
2018-12-03T12:30:14.791Z,85.30
2018-12-03T12:32:43.284Z,85.50
2018-12-03T12:35:11.932Z,85.60
2018-12-03T12:37:40.340Z,85.70
2018-12-03T12:40:11.157Z,85.70
2018-12-03T12:42:40.188Z,85.70
2018-12-03T12:45:15.928Z,85.60
2018-12-03T12:47:44.564Z,85.50
2018-12-03T12:50:16.065Z,85.50
2018-12-03T12:52:44.399Z,85.50
2018-12-03T12:55:12.745Z,85.50
2018-12-03T12:57:41.123Z,85.60
2018-12-03T13:00:13.282Z,85.80
2018-12-03T13:02:41.941Z,85.90
2018-12-03T13:05:10.420Z,86.00
2018-12-03T13:07:38.868Z,85.90
2018-12-03T13:10:10.578Z,85.90
2018-12-03T13:12:39.119Z,85.90
2018-12-03T13:15:11.466Z,86.00
2018-12-03T13:17:40.926Z,86.10
2018-12-03T13:20:11.364Z,86.20
2018-12-03T13:22:39.768Z,86.50
2018-12-03T13:25:10.067Z,86.90
2018-12-03T13:27:38.528Z,87.20
2018-12-03T13:30:11.057Z,87.40
2018-12-03T13:32:39.532Z,87.80
2018-12-03T13:35:09.628Z,88.10
2018-12-03T13:37:38.161Z,88.40
2018-12-03T13:40:11.507Z,88.80
2018-12-03T13:42:39.936Z,89.10
2018-12-03T13:45:16.878Z,89.40
2018-12-03T13:47:45.666Z,89.60
2018-12-03T13:50:15.220Z,89.80
2018-12-03T13:52:43.896Z,89.90
2018-12-03T13:55:17.769Z,89.90
2018-12-03T13:57:46.517Z,90.00
2018-12-03T14:00:22.815Z,90.10
2018-12-03T14:02:57.684Z,90.20
2018-12-03T14:05:26.228Z,90.30
2018-12-03T14:07:57.729Z,90.40
2018-12-03T14:10:35.992Z,90.50
2018-12-03T14:13:14.479Z,90.50
2018-12-03T14:15:53.888Z,90.50
2018-12-03T14:18:29.173Z,90.60
2018-12-03T14:21:01.692Z,90.60
2018-12-03T14:23:33.037Z,90.60
2018-12-03T14:26:01.440Z,90.60
2018-12-03T14:28:30.126Z,90.50
2018-12-03T14:30:58.532Z,90.50
2018-12-03T14:33:26.893Z,90.50
2018-12-03T14:35:55.311Z,90.40
2018-12-03T14:38:23.713Z,90.30
2018-12-03T14:40:52.507Z,90.30
2018-12-03T14:43:21.168Z,90.30
2018-12-03T14:45:49.584Z,90.40
2018-12-03T14:48:17.901Z,90.40
2018-12-03T14:50:46.228Z,90.60
2018-12-03T14:53:15.843Z,90.70
2018-12-03T14:55:44.192Z,90.80
2018-12-03T14:58:12.744Z,90.90
2018-12-03T15:00:41.121Z,90.90
2018-12-03T15:03:09.448Z,91.00
2018-12-03T15:05:37.780Z,91.00
2018-12-03T15:08:06.212Z,91.00
2018-12-03T15:10:34.516Z,91.00
2018-12-03T15:13:02.840Z,91.00
2018-12-03T15:15:31.441Z,91.00
2018-12-03T15:17:59.792Z,91.00
2018-12-03T15:20:28.210Z,91.00
2018-12-03T15:22:56.599Z,91.00
2018-12-03T15:25:24.944Z,91.10
2018-12-03T15:27:53.303Z,91.10
2018-12-03T15:30:21.736Z,91.20
2018-12-03T15:32:50.081Z,91.20
2018-12-03T15:35:18.520Z,91.20
2018-12-03T15:37:46.909Z,91.20
2018-12-03T15:40:16.233Z,91.30
2018-12-03T15:42:44.576Z,91.30
2018-12-03T15:45:15.045Z,91.30
2018-12-03T15:47:43.486Z,91.30
2018-12-03T15:50:11.850Z,91.30
2018-12-03T15:52:40.204Z,91.30
2018-12-03T15:55:08.810Z,91.30
2018-12-03T15:57:37.357Z,91.30
2018-12-03T16:00:08.493Z,91.40
2018-12-03T16:02:36.868Z,91.50
2018-12-03T16:05:08.101Z,91.60
2018-12-03T16:07:36.501Z,91.80
2018-12-03T16:10:07.745Z,91.90
2018-12-03T16:12:37.915Z,92.00
2018-12-03T16:15:07.420Z,92.00
2018-12-03T16:17:35.759Z,92.00
2018-12-03T16:20:05.172Z,92.00
2018-12-03T16:22:33.504Z,92.00
2018-12-03T16:25:01.834Z,92.10
2018-12-03T16:27:30.555Z,92.00
2018-12-03T16:29:58.952Z,92.00
2018-12-03T16:32:27.504Z,92.00
2018-12-03T16:34:55.941Z,92.10
2018-12-03T16:37:24.304Z,92.10
2018-12-03T16:39:52.620Z,92.20
2018-12-03T16:42:20.993Z,92.20
2018-12-03T16:44:49.441Z,92.20
2018-12-03T16:47:17.800Z,92.20
2018-12-03T16:49:46.102Z,92.10
2018-12-03T16:52:14.472Z,92.10
2018-12-03T16:54:42.808Z,92.10
2018-12-03T16:57:11.151Z,92.10
2018-12-03T16:59:39.496Z,92.10
2018-12-03T17:02:07.848Z,92.10
2018-12-03T17:04:36.184Z,92.10
2018-12-03T17:07:04.556Z,92.10
2018-12-03T17:09:33.348Z,92.20
2018-12-03T17:12:01.780Z,92.20
2018-12-03T17:14:30.175Z,92.40
2018-12-03T17:16:58.564Z,92.50
2018-12-03T17:19:27.043Z,92.60
2018-12-03T17:22:20.136Z,92.70
2018-12-03T17:24:48.988Z,92.80
2018-12-03T17:27:17.334Z,92.90
2018-12-03T17:29:46.186Z,93.00
2018-12-03T17:32:14.615Z,93.00
2018-12-03T17:34:48.734Z,93.10
2018-12-03T17:37:11.477Z,93.10
2018-12-03T17:39:39.861Z,93.10
2018-12-03T17:42:08.768Z,93.00
2018-12-03T17:44:37.240Z,92.90
2018-12-03T17:47:05.564Z,92.90
2018-12-03T17:49:33.944Z,92.80
2018-12-03T17:52:02.474Z,92.70
2018-12-03T17:54:30.839Z,92.70
2018-12-03T17:56:59.240Z,92.70
2018-12-03T17:59:27.666Z,92.70
2018-12-03T18:01:56.070Z,92.80
2018-12-03T18:04:24.463Z,92.80
2018-12-03T18:06:52.888Z,92.80
2018-12-03T18:09:21.348Z,92.80
2018-12-03T18:12:26.168Z,92.80
2018-12-03T18:14:54.641Z,92.70
2018-12-03T18:17:23.163Z,92.80
2018-12-03T18:19:51.906Z,92.80
2018-12-03T18:22:20.403Z,92.80
2018-12-03T18:24:48.792Z,92.90
2018-12-03T18:27:17.174Z,93.00
2018-12-03T18:29:45.575Z,93.00
2018-12-03T18:32:14.129Z,93.10
2018-12-03T18:34:42.607Z,93.10
2018-12-03T18:37:10.993Z,93.20
2018-12-03T18:39:39.387Z,93.20
2018-12-03T18:42:07.681Z,93.30
2018-12-03T18:44:36.084Z,93.50
2018-12-03T18:47:04.469Z,93.60
2018-12-03T18:49:35.633Z,93.70
2018-12-03T18:52:08.246Z,93.70
2018-12-03T18:54:36.936Z,93.70
2018-12-03T18:57:05.416Z,93.70
2018-12-03T18:59:34.036Z,93.60
2018-12-03T19:02:02.589Z,93.60
2018-12-03T19:04:30.992Z,93.60
2018-12-03T19:06:59.438Z,93.70
2018-12-03T19:09:29.696Z,93.70
2018-12-03T19:11:58.112Z,93.70
2018-12-03T19:14:26.525Z,93.80
2018-12-03T19:16:54.983Z,93.80
2018-12-03T19:19:23.381Z,93.80
2018-12-03T19:21:51.756Z,93.80
2018-12-03T19:24:20.108Z,93.90
2018-12-03T19:26:48.452Z,94.00
2018-12-03T19:29:16.970Z,94.00
2018-12-03T19:31:47.400Z,94.10
2018-12-03T19:34:17.826Z,94.10
2018-12-03T19:37:03.097Z,94.00
2018-12-03T19:39:31.651Z,94.00
2018-12-03T19:42:00.014Z,94.10
2018-12-03T19:44:28.320Z,94.10
2018-12-03T19:46:56.940Z,94.20
2018-12-03T19:49:25.905Z,94.30
2018-12-03T19:51:55.383Z,94.50
2018-12-03T19:54:23.858Z,94.60
2018-12-03T19:56:53.382Z,94.60
2018-12-03T19:59:23.419Z,94.60
2018-12-03T20:01:52.089Z,94.70
2018-12-03T20:04:26.478Z,94.70
2018-12-03T20:06:55.134Z,94.60
2018-12-03T20:09:23.777Z,94.60
2018-12-03T20:11:52.156Z,94.70
2018-12-03T20:14:20.573Z,94.80
2018-12-03T20:16:48.986Z,94.80
2018-12-03T20:19:18.346Z,94.80
2018-12-03T20:21:48.004Z,94.80
2018-12-03T20:24:17.705Z,94.90
2018-12-03T20:26:53.116Z,94.90
2018-12-03T20:29:39.318Z,94.90
2018-12-03T20:32:20.295Z,94.90
2018-12-03T20:35:01.081Z,95.00
2018-12-03T20:37:43.763Z,95.10
2018-12-03T20:40:25.429Z,95.10
2018-12-03T20:42:59.266Z,95.20
2018-12-03T20:47:42.408Z,95.20
2018-12-03T20:50:35.068Z,95.20
2018-12-03T20:53:03.454Z,95.20
2018-12-03T20:55:36.596Z,95.20
2018-12-03T20:58:05.077Z,95.20
2018-12-03T21:00:33.542Z,95.10
2018-12-03T21:03:02.931Z,95.10
2018-12-03T21:05:31.377Z,95.00
2018-12-03T21:07:59.773Z,95.00
2018-12-03T21:10:28.177Z,95.00
2018-12-03T21:12:56.630Z,95.00
2018-12-03T21:15:25.054Z,95.10
2018-12-03T21:17:53.409Z,95.10
2018-12-03T21:20:33.934Z,95.10
2018-12-03T21:23:02.351Z,95.10
2018-12-03T21:25:30.821Z,95.10
2018-12-03T21:27:59.249Z,95.10
2018-12-03T21:30:27.665Z,95.10
2018-12-03T21:32:56.126Z,95.20
2018-12-03T21:35:24.473Z,95.20
2018-12-03T21:37:53.392Z,95.20
2018-12-03T21:40:21.800Z,95.30
2018-12-03T21:42:50.272Z,95.30
2018-12-03T21:45:18.583Z,95.20
2018-12-03T21:47:47.064Z,95.20
2018-12-03T21:50:15.416Z,95.20
2018-12-03T21:52:43.730Z,95.20
2018-12-03T21:55:13.176Z,95.20
2018-12-03T21:57:41.814Z,95.20
2018-12-03T22:00:14.832Z,95.20
2018-12-03T22:02:43.180Z,95.20
2018-12-03T22:05:11.546Z,95.20
2018-12-03T22:07:39.885Z,95.30
2018-12-03T22:10:08.488Z,95.30
2018-12-03T22:12:36.944Z,95.40
2018-12-03T22:15:06.654Z,95.30
2018-12-03T22:17:35.063Z,95.40
2018-12-03T22:20:04.525Z,95.50
2018-12-03T22:22:32.916Z,95.50
2018-12-03T22:25:01.296Z,95.50
2018-12-03T22:27:29.685Z,95.50
2018-12-03T22:30:02.931Z,95.60
2018-12-03T22:32:32.358Z,95.80
2018-12-03T22:35:00.836Z,95.90
2018-12-03T22:37:29.213Z,96.00
2018-12-03T22:39:57.545Z,96.00
2018-12-03T22:42:25.996Z,96.20
2018-12-03T22:44:54.340Z,96.30
2018-12-03T22:47:22.684Z,96.30
2018-12-03T22:49:51.012Z,96.30
2018-12-03T22:52:19.353Z,96.40
2018-12-03T22:54:47.652Z,96.40
2018-12-03T22:57:15.976Z,96.50
2018-12-03T22:59:44.260Z,96.80
2018-12-03T23:02:12.564Z,97.10
2018-12-03T23:04:41.132Z,97.60
2018-12-03T23:07:09.472Z,97.90
2018-12-03T23:09:37.768Z,98.30
2018-12-03T23:12:06.348Z,98.60
2018-12-03T23:14:34.671Z,98.70
2018-12-03T23:17:02.980Z,98.80
2018-12-03T23:19:31.324Z,98.80
2018-12-03T23:21:59.615Z,98.80
2018-12-03T23:24:28.012Z,98.80
2018-12-03T23:26:56.322Z,98.90
2018-12-03T23:29:24.641Z,99.00
2018-12-03T23:31:54.017Z,99.20
2018-12-03T23:34:22.298Z,99.40
2018-12-03T23:36:50.928Z,99.50
2018-12-03T23:39:19.266Z,99.70
2018-12-03T23:41:47.685Z,99.80
2018-12-03T23:44:16.051Z,99.90
2018-12-03T23:46:44.694Z,99.90
2018-12-03T23:49:12.960Z,99.90
2018-12-03T23:51:41.268Z,99.90
2018-12-03T23:54:09.845Z,99.90
2018-12-03T23:56:38.136Z,99.90
2018-12-03T23:59:06.468Z,99.90
